SAMM/LGS METAR and TAF weather

Enter ICAO airport designator
Station Type Date Time Source
SAMM METAR 2019/06/15 19:20 UTC NOAA

SAMM 151920Z 14006KT 0800 SN SCT010 BKN015 OVC040 00/M01 Q1026


Station Type Date Time Source
SAMM Decoded METAR 2019/06/15 19:20 UTC NOAA

Malargue Aerodrome, Argentina (SAMM) 35-30S 069-35W 1425M
Jun 15, 2019 - 03:20 PM EDT / 2019.06.15 1920 UTC
Wind: from the SE (140 degrees) at 7 MPH (6 KT):0
Visibility: less than 1 mile:0
Sky conditions: overcast
Weather: snow
Temperature: 32 F (0 C)
Windchill: 24 F (-4 C):1
Dew Point: 30 F (-1 C)
Relative Humidity: 92%
Pressure (altimeter): 30.30 in. Hg (1026 hPa)
ob: SAMM 151920Z 14006KT 0800 SN SCT010 BKN015 OVC040 00/M01 Q1026
cycle: 19

Station Type Date Time Source
SAMM TAF UTC NOAA

Error!

Example: see airport list